Time;durP1;ratioP1;P1;durP2;ratioP2;P2;SDS_P1;SDS_P2;PMS_P1;PMS_P2;Temp;Humidity;BMP_temperature;BMP_pressure;BME280_temperature;BME280_humidity;BME280_pressure;Samples;Min_cycle;Max_cycle;Signal;HPM_P1;HPM_P2
2022/08/31 00:05:43;;;;;;;13.98;6.82;;;;;;;;;;3363412;42;20178;-61
2022/08/31 00:08:09;;;;;;;11.37;6.07;;;;;;;;;;3365789;42;20145;-62
2022/08/31 00:10:39;;;;;;;13.60;6.95;;;;;;;;;;3364859;42;20088;-61
2022/08/31 00:13:06;;;;;;;14.73;6.32;;;;;;;;;;3366115;42;20092;-61
2022/08/31 00:15:32;;;;;;;11.85;6.45;;;;;;;;;;3364674;42;20096;-61
2022/08/31 00:17:58;;;;;;;13.85;6.70;;;;;;;;;;3364327;42;20092;-61
2022/08/31 00:20:24;;;;;;;14.47;6.33;;;;;;;;;;3366303;42;20087;-59
2022/08/31 00:22:50;;;;;;;10.50;6.20;;;;;;;;;;3364475;42;20571;-62
2022/08/31 00:25:16;;;;;;;15.45;6.88;;;;;;;;;;3366223;42;20103;-61
2022/08/31 00:27:42;;;;;;;12.25;6.00;;;;;;;;;;3366218;42;20096;-60
2022/08/31 00:30:09;;;;;;;13.30;6.03;;;;;;;;;;3366034;42;20457;-62
2022/08/31 00:32:35;;;;;;;12.83;6.00;;;;;;;;;;3365971;42;20298;-61
2022/08/31 00:35:01;;;;;;;12.90;6.07;;;;;;;;;;3365291;42;20166;-62
2022/08/31 00:37:27;;;;;;;14.95;5.90;;;;;;;;;;3365868;42;20099;-60
2022/08/31 00:39:54;;;;;;;12.55;6.22;;;;;;;;;;3366186;42;20087;-61
2022/08/31 00:42:19;;;;;;;12.40;5.63;;;;;;;;;;3364683;42;20087;-61
2022/08/31 00:44:46;;;;;;;14.73;6.22;;;;;;;;;;3364973;42;20095;-62
2022/08/31 00:47:11;;;;;;;14.52;6.07;;;;;;;;;;3366340;42;20215;-61
2022/08/31 00:49:38;;;;;;;14.23;5.80;;;;;;;;;;3365974;42;20087;-63
2022/08/31 00:52:13;;;;;;;14.13;6.33;;;;;;;;;;3364831;42;20091;-60
2022/08/31 00:54:42;;;;;;;11.02;5.60;;;;;;;;;;3361314;42;20091;-61
2022/08/31 00:57:08;;;;;;;12.43;6.05;;;;;;;;;;3364570;42;20159;-60
2022/08/31 00:59:34;;;;;;;13.23;5.78;;;;;;;;;;3364774;42;20088;-61
2022/08/31 01:02:00;;;;;;;11.52;5.97;;;;;;;;;;3364737;42;20156;-61
2022/08/31 01:04:26;;;;;;;15.40;5.83;;;;;;;;;;3366445;42;20627;-60
2022/08/31 01:06:52;;;;;;;17.52;5.97;;;;;;;;;;3365368;42;20095;-61
2022/08/31 01:09:19;;;;;;;17.35;6.60;;;;;;;;;;3365544;42;20134;-60
2022/08/31 01:11:45;;;;;;;13.90;6.28;;;;;;;;;;3365308;42;20114;-60
2022/08/31 01:14:11;;;;;;;11.87;5.60;;;;;;;;;;3365121;42;20087;-60
2022/08/31 01:16:43;;;;;;;13.75;5.82;;;;;;;;;;3366016;42;20100;-61
2022/08/31 01:19:35;;;;;;;12.93;5.78;;;;;;;;;;3364872;42;20138;-61
2022/08/31 01:22:22;;;;;;;14.13;5.35;;;;;;;;;;3364402;42;20195;-62
2022/08/31 01:24:48;;;;;;;14.57;5.57;;;;;;;;;;3361758;42;20147;-62
2022/08/31 01:27:15;;;;;;;11.85;5.80;;;;;;;;;;3364571;42;20088;-61
2022/08/31 01:29:41;;;;;;;14.82;6.00;;;;;;;;;;3365608;42;20088;-61
2022/08/31 01:32:07;;;;;;;14.55;5.72;;;;;;;;;;3367790;42;20221;-61
2022/08/31 01:34:33;;;;;;;12.87;5.57;;;;;;;;;;3366207;42;20108;-61
2022/08/31 01:36:59;;;;;;;13.65;5.70;;;;;;;;;;3367611;42;20114;-61
2022/08/31 01:39:25;;;;;;;14.40;6.10;;;;;;;;;;3367566;42;20098;-61
2022/08/31 01:41:52;;;;;;;13.82;6.10;;;;;;;;;;3366021;42;20100;-60
2022/08/31 01:44:20;;;;;;;13.20;6.03;;;;;;;;;;3367693;42;20104;-61
2022/08/31 01:46:46;;;;;;;11.57;5.70;;;;;;;;;;3366139;42;20100;-61
2022/08/31 01:49:13;;;;;;;14.85;7.72;;;;;;;;;;3367189;42;20094;-61
2022/08/31 01:51:39;;;;;;;17.85;7.03;;;;;;;;;;3365940;42;20127;-60
2022/08/31 01:54:05;;;;;;;13.02;6.18;;;;;;;;;;3367571;42;20542;-60
2022/08/31 01:56:34;;;;;;;18.17;6.10;;;;;;;;;;3367351;42;20100;-61
2022/08/31 01:59:00;;;;;;;13.50;5.88;;;;;;;;;;3368022;42;20155;-62
2022/08/31 02:01:30;;;;;;;17.02;6.05;;;;;;;;;;3365935;42;20230;-61
2022/08/31 02:03:56;;;;;;;12.45;5.90;;;;;;;;;;3349880;42;20526;-60
2022/08/31 02:06:22;;;;;;;12.77;5.90;;;;;;;;;;3362211;42;20151;-61
2022/08/31 02:08:47;;;;;;;12.07;5.77;;;;;;;;;;3361873;42;20095;-60
2022/08/31 02:11:13;;;;;;;13.30;6.15;;;;;;;;;;3361368;42;20096;-62
2022/08/31 02:13:39;;;;;;;13.23;6.10;;;;;;;;;;3364234;42;20688;-61
2022/08/31 02:16:05;;;;;;;13.60;5.97;;;;;;;;;;3362630;42;20571;-59
2022/08/31 02:18:33;;;;;;;13.13;5.97;;;;;;;;;;3363278;42;20742;-60
2022/08/31 02:20:59;;;;;;;14.80;6.38;;;;;;;;;;3349747;42;20155;-61
2022/08/31 02:23:24;;;;;;;13.73;6.10;;;;;;;;;;3358419;42;20092;-62
2022/08/31 02:25:50;;;;;;;12.60;5.77;;;;;;;;;;3359282;42;20629;-61
2022/08/31 02:28:17;;;;;;;12.20;6.55;;;;;;;;;;3361736;42;20519;-61
2022/08/31 02:30:44;;;;;;;12.52;5.90;;;;;;;;;;3371012;42;20163;-61
2022/08/31 02:33:10;;;;;;;13.77;6.53;;;;;;;;;;3352881;42;20107;-61
2022/08/31 02:35:38;;;;;;;16.17;6.45;;;;;;;;;;3362997;42;20092;-61
2022/08/31 02:38:04;;;;;;;12.83;6.80;;;;;;;;;;3363429;42;20135;-61
2022/08/31 02:40:31;;;;;;;16.20;6.20;;;;;;;;;;3362036;42;20096;-62
2022/08/31 02:42:57;;;;;;;13.43;5.95;;;;;;;;;;3366771;42;20112;-61
2022/08/31 02:45:23;;;;;;;12.45;6.68;;;;;;;;;;3363761;42;20140;-60
2022/08/31 02:47:49;;;;;;;11.65;5.80;;;;;;;;;;3362007;42;20140;-61
2022/08/31 02:50:15;;;;;;;13.23;6.50;;;;;;;;;;3349904;42;20080;-61
2022/08/31 02:52:41;;;;;;;14.43;5.97;;;;;;;;;;3362654;42;20096;-61
2022/08/31 02:55:07;;;;;;;11.73;6.07;;;;;;;;;;3363383;42;20593;-61
2022/08/31 02:57:33;;;;;;;14.88;6.15;;;;;;;;;;3363729;42;20582;-61
2022/08/31 02:59:59;;;;;;;18.03;6.17;;;;;;;;;;3363067;42;20102;-61
2022/08/31 03:02:25;;;;;;;14.73;6.30;;;;;;;;;;3359955;42;20114;-61
2022/08/31 03:04:51;;;;;;;18.00;6.63;;;;;;;;;;3362256;42;20092;-60
2022/08/31 03:07:17;;;;;;;13.63;6.40;;;;;;;;;;3361477;42;20630;-60
2022/08/31 03:09:43;;;;;;;13.60;6.37;;;;;;;;;;3366584;42;20566;-60
2022/08/31 03:12:09;;;;;;;13.57;6.45;;;;;;;;;;3366402;42;20096;-60
2022/08/31 03:14:35;;;;;;;13.38;6.57;;;;;;;;;;3366486;42;20111;-60
2022/08/31 03:17:01;;;;;;;13.07;6.18;;;;;;;;;;3366280;42;20104;-61
2022/08/31 03:19:27;;;;;;;14.73;6.17;;;;;;;;;;3366720;42;20088;-60
2022/08/31 03:21:53;;;;;;;13.25;6.22;;;;;;;;;;3366624;42;20119;-61
2022/08/31 03:24:20;;;;;;;17.48;6.65;;;;;;;;;;3366758;42;20092;-60
2022/08/31 03:26:46;;;;;;;16.80;6.72;;;;;;;;;;3365024;42;20099;-61
2022/08/31 03:29:12;;;;;;;14.83;6.10;;;;;;;;;;3365483;42;20099;-61
2022/08/31 03:31:38;;;;;;;14.18;6.25;;;;;;;;;;3364240;42;20088;-61
2022/08/31 03:34:04;;;;;;;15.25;6.30;;;;;;;;;;3364624;42;20192;-61
2022/08/31 03:36:30;;;;;;;16.35;6.22;;;;;;;;;;3366459;42;20720;-61
2022/08/31 03:38:56;;;;;;;15.05;6.00;;;;;;;;;;3366322;42;20555;-60
2022/08/31 03:41:23;;;;;;;18.37;6.53;;;;;;;;;;3365148;42;20559;-60
2022/08/31 03:43:49;;;;;;;13.55;6.93;;;;;;;;;;3366499;42;20091;-60
2022/08/31 03:46:15;;;;;;;13.45;5.97;;;;;;;;;;3366025;42;20095;-60
2022/08/31 03:48:41;;;;;;;12.32;6.38;;;;;;;;;;3366322;42;20118;-61
2022/08/31 03:51:07;;;;;;;13.77;6.20;;;;;;;;;;3364855;42;20106;-62
2022/08/31 03:53:34;;;;;;;14.68;6.30;;;;;;;;;;3366043;42;20095;-60
2022/08/31 03:56:02;;;;;;;14.55;6.68;;;;;;;;;;3365829;42;20182;-61
2022/08/31 03:58:28;;;;;;;16.55;6.70;;;;;;;;;;3366615;42;20546;-61
2022/08/31 04:00:55;;;;;;;14.75;6.30;;;;;;;;;;3365352;42;20551;-62
2022/08/31 04:03:22;;;;;;;17.37;5.97;;;;;;;;;;3365342;42;20142;-61
2022/08/31 04:05:48;;;;;;;15.48;6.38;;;;;;;;;;3366455;42;20467;-61
2022/08/31 04:08:14;;;;;;;15.65;6.05;;;;;;;;;;3366572;42;20601;-62
2022/08/31 04:10:41;;;;;;;18.17;6.30;;;;;;;;;;3366356;42;20118;-62
2022/08/31 04:13:07;;;;;;;15.43;6.15;;;;;;;;;;3366423;42;20084;-62
2022/08/31 04:15:34;;;;;;;18.10;6.20;;;;;;;;;;3364912;42;20098;-61
2022/08/31 04:18:00;;;;;;;12.90;6.28;;;;;;;;;;3365900;42;20161;-61
2022/08/31 04:20:26;;;;;;;18.60;6.20;;;;;;;;;;3364720;42;20096;-63
2022/08/31 04:22:52;;;;;;;13.02;6.50;;;;;;;;;;3362123;42;20102;-62
2022/08/31 04:25:18;;;;;;;16.00;6.70;;;;;;;;;;3361055;42;20150;-61
2022/08/31 04:27:44;;;;;;;14.45;6.50;;;;;;;;;;3362925;42;20088;-61
2022/08/31 04:30:12;;;;;;;15.05;6.50;;;;;;;;;;3362348;42;20613;-63
2022/08/31 04:32:38;;;;;;;16.60;6.15;;;;;;;;;;3365330;42;20092;-63
2022/08/31 04:35:04;;;;;;;15.37;6.70;;;;;;;;;;3358728;42;20165;-62
2022/08/31 04:37:30;;;;;;;17.63;6.50;;;;;;;;;;3366126;42;20095;-62
2022/08/31 04:39:57;;;;;;;15.68;6.63;;;;;;;;;;3364770;42;20676;-62
2022/08/31 04:42:23;;;;;;;14.73;6.55;;;;;;;;;;3365904;42;20096;-62
2022/08/31 04:44:50;;;;;;;16.60;6.60;;;;;;;;;;3365556;42;20165;-62
2022/08/31 04:47:16;;;;;;;15.67;6.37;;;;;;;;;;3369737;42;20091;-61
2022/08/31 04:49:42;;;;;;;13.55;6.40;;;;;;;;;;3365434;42;20504;-61
2022/08/31 04:52:08;;;;;;;18.10;6.90;;;;;;;;;;3359460;42;20092;-61
2022/08/31 04:54:34;;;;;;;14.05;6.15;;;;;;;;;;3360712;42;20083;-61
2022/08/31 04:57:00;;;;;;;16.83;6.73;;;;;;;;;;3359411;42;20099;-61
2022/08/31 04:59:26;;;;;;;18.60;6.32;;;;;;;;;;3362697;42;20108;-62
2022/08/31 05:01:52;;;;;;;13.68;6.88;;;;;;;;;;3357118;42;20166;-61
2022/08/31 05:04:22;;;;;;;15.50;6.45;;;;;;;;;;3362953;42;20100;-61
2022/08/31 05:06:48;;;;;;;18.73;6.75;;;;;;;;;;3365915;42;20169;-61
2022/08/31 05:09:18;;;;;;;15.43;7.07;;;;;;;;;;3367524;42;20086;-62
2022/08/31 05:11:44;;;;;;;16.23;7.10;;;;;;;;;;3366070;42;20107;-61
2022/08/31 05:14:10;;;;;;;14.65;7.07;;;;;;;;;;3367257;42;20094;-62
2022/08/31 05:16:37;;;;;;;15.60;6.63;;;;;;;;;;3366757;42;20115;-62
2022/08/31 05:19:03;;;;;;;15.87;6.87;;;;;;;;;;3363762;42;20092;-61
2022/08/31 05:21:32;;;;;;;14.27;6.75;;;;;;;;;;3364913;42;20162;-60
2022/08/31 05:24:02;;;;;;;15.68;6.72;;;;;;;;;;3365055;42;20099;-61
2022/08/31 05:26:33;;;;;;;14.70;6.45;;;;;;;;;;3370819;42;20139;-62
2022/08/31 05:29:00;;;;;;;16.58;6.80;;;;;;;;;;3365171;42;20087;-61
2022/08/31 05:31:27;;;;;;;16.63;6.47;;;;;;;;;;3366718;42;20652;-61
2022/08/31 05:33:53;;;;;;;15.57;6.57;;;;;;;;;;3365645;42;20562;-61
2022/08/31 05:36:19;;;;;;;13.30;6.35;;;;;;;;;;3358364;42;20639;-62
2022/08/31 05:38:45;;;;;;;14.63;6.53;;;;;;;;;;3365909;42;20571;-63
2022/08/31 05:41:11;;;;;;;17.85;6.20;;;;;;;;;;3367069;42;20536;-62
2022/08/31 05:43:37;;;;;;;17.80;6.83;;;;;;;;;;3365624;42;20102;-63
2022/08/31 05:46:05;;;;;;;16.40;6.57;;;;;;;;;;3366873;42;20099;-60
2022/08/31 05:48:35;;;;;;;12.55;5.90;;;;;;;;;;3365602;42;20202;-63
2022/08/31 05:51:05;;;;;;;15.23;6.40;;;;;;;;;;3365754;42;20088;-62
2022/08/31 05:53:32;;;;;;;14.93;6.57;;;;;;;;;;3365800;42;20096;-63
2022/08/31 05:56:05;;;;;;;17.57;6.00;;;;;;;;;;3364146;42;20525;-62
2022/08/31 05:58:31;;;;;;;15.43;6.20;;;;;;;;;;3365301;42;20609;-62
2022/08/31 06:00:57;;;;;;;15.18;6.10;;;;;;;;;;3363871;42;20148;-62
2022/08/31 06:03:24;;;;;;;15.23;6.22;;;;;;;;;;3364867;42;20831;-61
2022/08/31 06:05:50;;;;;;;16.05;6.35;;;;;;;;;;3363207;42;20696;-62
2022/08/31 06:08:16;;;;;;;19.67;6.10;;;;;;;;;;3361014;42;20210;-62
2022/08/31 06:10:42;;;;;;;16.00;6.28;;;;;;;;;;3364662;42;20083;-62
2022/08/31 06:13:12;;;;;;;12.57;5.72;;;;;;;;;;3365076;42;20609;-61
2022/08/31 06:15:40;;;;;;;16.40;6.07;;;;;;;;;;3364415;42;20135;-61
2022/08/31 06:18:06;;;;;;;14.07;6.22;;;;;;;;;;3365695;42;20474;-62
2022/08/31 06:20:36;;;;;;;15.33;6.40;;;;;;;;;;3365303;42;20620;-62
2022/08/31 06:23:06;;;;;;;16.58;6.85;;;;;;;;;;3363325;42;20096;-62
2022/08/31 06:25:35;;;;;;;15.50;6.40;;;;;;;;;;3363432;42;20910;-62
2022/08/31 06:28:05;;;;;;;14.73;6.85;;;;;;;;;;3363700;42;20144;-61
2022/08/31 06:30:35;;;;;;;18.30;6.60;;;;;;;;;;3363728;42;20157;-62
2022/08/31 06:33:01;;;;;;;13.70;6.37;;;;;;;;;;3364907;42;20092;-62
2022/08/31 06:35:27;;;;;;;14.68;6.28;;;;;;;;;;3363723;42;20114;-61
2022/08/31 06:37:55;;;;;;;15.20;6.88;;;;;;;;;;3364089;42;20094;-62
2022/08/31 06:40:23;;;;;;;15.07;6.70;;;;;;;;;;3362641;42;20100;-61
2022/08/31 06:42:49;;;;;;;13.73;6.25;;;;;;;;;;3364183;42;20111;-62
2022/08/31 06:45:15;;;;;;;16.10;6.73;;;;;;;;;;3364313;42;20142;-63
2022/08/31 06:47:41;;;;;;;17.67;6.72;;;;;;;;;;3363978;42;20083;-62
2022/08/31 06:50:07;;;;;;;15.13;6.55;;;;;;;;;;3363775;42;20084;-62
2022/08/31 06:52:33;;;;;;;14.23;7.03;;;;;;;;;;3362492;42;20092;-61
2022/08/31 06:54:59;;;;;;;18.00;6.47;;;;;;;;;;3363990;42;20131;-61
2022/08/31 06:57:25;;;;;;;17.38;6.50;;;;;;;;;;3362883;42;20169;-62
2022/08/31 06:59:52;;;;;;;14.13;6.68;;;;;;;;;;3363315;42;20084;-62
2022/08/31 07:02:18;;;;;;;13.50;6.40;;;;;;;;;;3364844;42;20084;-61
2022/08/31 07:04:44;;;;;;;16.88;6.50;;;;;;;;;;3364841;42;20154;-62
2022/08/31 07:07:10;;;;;;;15.97;7.03;;;;;;;;;;3366222;42;20550;-62
2022/08/31 07:09:38;;;;;;;18.08;6.35;;;;;;;;;;3364946;42;20091;-62
2022/08/31 07:12:04;;;;;;;18.95;7.15;;;;;;;;;;3364760;42;20087;-62
2022/08/31 07:14:30;;;;;;;16.55;6.60;;;;;;;;;;3369698;42;20143;-62
2022/08/31 07:16:57;;;;;;;17.40;7.28;;;;;;;;;;3361883;42;20170;-62
2022/08/31 07:19:23;;;;;;;16.23;6.63;;;;;;;;;;3357738;42;20091;-62
2022/08/31 07:21:53;;;;;;;17.38;6.70;;;;;;;;;;3361096;42;20096;-62
2022/08/31 07:24:23;;;;;;;16.35;6.25;;;;;;;;;;3359518;42;20174;-61
2022/08/31 07:26:56;;;;;;;15.32;6.57;;;;;;;;;;3362376;42;20497;-62
2022/08/31 07:29:29;;;;;;;13.73;6.38;;;;;;;;;;3360639;42;20163;-62
2022/08/31 07:31:56;;;;;;;16.03;6.83;;;;;;;;;;3364648;42;20455;-61
2022/08/31 07:34:26;;;;;;;15.02;7.03;;;;;;;;;;3359109;42;20163;-62
2022/08/31 07:42:28;;;;;;;15.95;6.90;;;;;;;;;;3360192;42;20111;-62
2022/08/31 07:44:55;;;;;;;13.63;6.38;;;;;;;;;;3365022;42;20554;-62
2022/08/31 07:47:21;;;;;;;17.30;6.38;;;;;;;;;;3366046;42;20123;-62
2022/08/31 07:49:50;;;;;;;16.35;6.35;;;;;;;;;;3366146;42;20095;-61
2022/08/31 07:52:22;;;;;;;13.98;5.53;;;;;;;;;;3366072;42;20096;-61
2022/08/31 07:54:49;;;;;;;18.98;6.18;;;;;;;;;;3366231;42;20134;-61
2022/08/31 07:57:15;;;;;;;18.10;6.60;;;;;;;;;;3364370;42;20549;-61
2022/08/31 07:59:40;;;;;;;14.43;6.18;;;;;;;;;;3365933;42;20643;-62
2022/08/31 08:02:07;;;;;;;14.20;6.20;;;;;;;;;;3365991;42;20629;-61
2022/08/31 08:04:37;;;;;;;15.40;6.50;;;;;;;;;;3366033;42;20494;-62
2022/08/31 08:07:04;;;;;;;16.80;6.17;;;;;;;;;;3365668;42;20159;-62
2022/08/31 08:09:30;;;;;;;15.48;6.75;;;;;;;;;;3364313;42;20615;-61
2022/08/31 08:11:57;;;;;;;16.02;6.55;;;;;;;;;;3366012;42;20646;-61
2022/08/31 08:14:26;;;;;;;13.13;6.32;;;;;;;;;;3365764;42;20851;-64
2022/08/31 08:16:53;;;;;;;12.90;6.90;;;;;;;;;;3365875;42;20147;-62
2022/08/31 08:19:19;;;;;;;13.18;6.40;;;;;;;;;;3365902;42;20106;-61
2022/08/31 08:21:45;;;;;;;17.35;7.63;;;;;;;;;;3365748;42;20586;-63
2022/08/31 08:24:11;;;;;;;12.57;6.72;;;;;;;;;;3364289;42;20159;-61
2022/08/31 08:26:41;;;;;;;15.30;7.10;;;;;;;;;;3365534;42;20160;-62
2022/08/31 08:29:07;;;;;;;18.03;6.67;;;;;;;;;;3366070;42;20094;-62
2022/08/31 08:31:33;;;;;;;16.70;7.18;;;;;;;;;;3365986;42;20125;-61
2022/08/31 08:34:00;;;;;;;15.55;6.68;;;;;;;;;;3366045;42;20173;-61
2022/08/31 08:36:36;;;;;;;14.55;6.28;;;;;;;;;;3364067;42;20264;-62
2022/08/31 08:39:07;;;;;;;17.85;6.68;;;;;;;;;;3355578;42;20542;-61
2022/08/31 08:41:36;;;;;;;13.87;6.73;;;;;;;;;;3363223;42;20138;-61
2022/08/31 08:44:11;;;;;;;14.50;6.60;;;;;;;;;;3364433;42;20546;-62
2022/08/31 08:46:50;;;;;;;16.48;6.30;;;;;;;;;;3364137;42;20190;-63
2022/08/31 08:49:27;;;;;;;13.85;6.25;;;;;;;;;;3364048;42;20155;-62
2022/08/31 08:52:04;;;;;;;12.77;6.18;;;;;;;;;;3364460;42;20110;-62
2022/08/31 08:54:38;;;;;;;16.97;6.60;;;;;;;;;;3364418;42;20553;-62
2022/08/31 08:57:17;;;;;;;17.15;6.72;;;;;;;;;;3363688;42;20095;-60
2022/08/31 08:59:44;;;;;;;15.73;6.65;;;;;;;;;;3365339;42;20246;-61
2022/08/31 09:02:44;;;;;;;16.15;7.00;;;;;;;;;;3365252;42;20178;-61
2022/08/31 09:05:23;;;;;;;15.20;6.45;;;;;;;;;;3345077;42;20147;-62
2022/08/31 09:08:15;;;;;;;15.13;6.40;;;;;;;;;;3365696;42;20103;-62
2022/08/31 09:11:08;;;;;;;11.95;6.30;;;;;;;;;;3361158;42;20497;-62
2022/08/31 09:13:35;;;;;;;16.00;6.70;;;;;;;;;;3365490;42;20154;-62
2022/08/31 09:16:04;;;;;;;18.08;7.07;;;;;;;;;;3365741;42;20110;-62
2022/08/31 09:19:04;;;;;;;18.77;7.28;;;;;;;;;;3366506;42;20102;-61
2022/08/31 09:21:35;;;;;;;15.37;7.20;;;;;;;;;;3365987;42;20076;-62
2022/08/31 09:24:04;;;;;;;13.35;6.90;;;;;;;;;;3357779;42;20088;-62
2022/08/31 09:26:34;;;;;;;16.38;7.55;;;;;;;;;;3364206;42;20568;-61
2022/08/31 09:29:02;;;;;;;15.73;6.75;;;;;;;;;;3365721;42;20102;-62
2022/08/31 09:31:34;;;;;;;15.32;7.38;;;;;;;;;;3364111;42;20094;-61
2022/08/31 09:34:00;;;;;;;14.60;7.50;;;;;;;;;;3366776;42;20634;-65
2022/08/31 09:36:45;;;;;;;17.40;7.35;;;;;;;;;;3364097;42;20130;-61
2022/08/31 09:39:17;;;;;;;16.25;7.55;;;;;;;;;;3365840;42;20493;-61
2022/08/31 09:41:43;;;;;;;13.27;7.03;;;;;;;;;;3363897;42;20107;-62
2022/08/31 09:44:35;;;;;;;17.67;7.38;;;;;;;;;;3365538;42;20095;-62
2022/08/31 09:47:04;;;;;;;15.70;7.70;;;;;;;;;;3362578;42;20147;-64
2022/08/31 09:49:37;;;;;;;12.23;6.88;;;;;;;;;;3364181;42;20114;-62
2022/08/31 09:55:13;;;;;;;13.60;7.07;;;;;;;;;;3367111;42;20100;-61
2022/08/31 09:57:57;;;;;;;15.60;7.35;;;;;;;;;;3365929;42;20110;-60
2022/08/31 10:00:42;;;;;;;16.13;6.97;;;;;;;;;;3367210;42;20151;-61
2022/08/31 10:03:20;;;;;;;12.40;7.07;;;;;;;;;;3367090;42;20601;-60
2022/08/31 10:05:47;;;;;;;16.80;7.63;;;;;;;;;;3366771;42;20577;-61
2022/08/31 10:08:26;;;;;;;20.58;7.15;;;;;;;;;;3365505;42;20096;-62
2022/08/31 10:10:57;;;;;;;18.92;7.25;;;;;;;;;;3361546;42;20177;-61
2022/08/31 10:13:49;;;;;;;27.53;8.90;;;;;;;;;;3365626;42;20084;-60
2022/08/31 10:16:28;;;;;;;14.50;7.13;;;;;;;;;;3361313;42;20107;-61
2022/08/31 10:19:05;;;;;;;14.70;7.43;;;;;;;;;;3365306;42;20580;-62
2022/08/31 10:21:37;;;;;;;18.88;7.55;;;;;;;;;;3360446;42;20084;-61
2022/08/31 10:24:27;;;;;;;16.52;7.75;;;;;;;;;;3365737;42;20098;-61
2022/08/31 10:27:06;;;;;;;16.17;7.20;;;;;;;;;;3366298;42;20152;-61
2022/08/31 10:29:43;;;;;;;15.55;7.82;;;;;;;;;;3365310;42;20096;-61
2022/08/31 10:32:33;;;;;;;16.00;7.63;;;;;;;;;;3365423;42;20099;-60
2022/08/31 10:35:09;;;;;;;15.05;7.10;;;;;;;;;;3365410;42;20143;-57
2022/08/31 10:38:07;;;;;;;12.85;7.25;;;;;;;;;;3365256;42;20559;-63
2022/08/31 10:40:50;;;;;;;15.87;7.40;;;;;;;;;;3362547;42;20096;-58
2022/08/31 10:43:22;;;;;;;14.23;7.43;;;;;;;;;;3360507;42;20092;-58
2022/08/31 10:45:51;;;;;;;15.80;7.15;;;;;;;;;;3359638;42;20130;-54
2022/08/31 10:48:23;;;;;;;16.13;7.55;;;;;;;;;;3353827;42;20590;-58
2022/08/31 10:50:55;;;;;;;13.63;7.50;;;;;;;;;;3360624;42;20513;-57
2022/08/31 10:53:49;;;;;;;16.50;7.37;;;;;;;;;;3364479;42;20108;-55
2022/08/31 10:56:31;;;;;;;15.77;7.47;;;;;;;;;;3362646;42;20170;-59
2022/08/31 10:59:03;;;;;;;15.15;7.03;;;;;;;;;;3361856;42;20582;-57
2022/08/31 11:02:13;;;;;;;13.32;7.20;;;;;;;;;;3362817;42;20467;-58
2022/08/31 11:04:54;;;;;;;13.10;7.05;;;;;;;;;;3333987;42;20648;-60
2022/08/31 11:07:34;;;;;;;16.20;7.73;;;;;;;;;;3331143;42;20259;-57
2022/08/31 11:10:18;;;;;;;11.50;6.30;;;;;;;;;;3354487;42;20213;-55
2022/08/31 11:12:48;;;;;;;15.77;6.68;;;;;;;;;;3366059;42;20596;-55
2022/08/31 11:15:32;;;;;;;13.65;6.60;;;;;;;;;;3364199;42;20566;-57
2022/08/31 11:18:22;;;;;;;19.40;7.43;;;;;;;;;;3365726;42;20109;-55
2022/08/31 11:21:07;;;;;;;15.47;7.47;;;;;;;;;;3366427;42;20099;-58
2022/08/31 11:24:12;;;;;;;14.35;6.50;;;;;;;;;;3359786;42;20096;-55
2022/08/31 11:27:04;;;;;;;16.33;6.85;;;;;;;;;;3356854;42;20167;-59
2022/08/31 11:29:55;;;;;;;14.38;6.50;;;;;;;;;;3358433;42;20159;-56
2022/08/31 11:32:33;;;;;;;11.35;6.55;;;;;;;;;;3365727;42;20110;-55
2022/08/31 11:35:07;;;;;;;14.80;7.20;;;;;;;;;;3361369;42;20139;-57
2022/08/31 11:37:50;;;;;;;13.25;6.88;;;;;;;;;;3359549;42;20202;-59
2022/08/31 11:40:41;;;;;;;12.63;6.40;;;;;;;;;;3364220;42;20103;-58
2022/08/31 11:43:14;;;;;;;12.50;6.32;;;;;;;;;;3362655;42;20106;-58
2022/08/31 11:45:40;;;;;;;14.23;6.68;;;;;;;;;;3356145;42;20092;-56
2022/08/31 11:48:09;;;;;;;14.63;6.23;;;;;;;;;;3362027;42;20627;-58
2022/08/31 11:50:38;;;;;;;15.50;6.65;;;;;;;;;;3360874;42;20132;-58
2022/08/31 11:53:18;;;;;;;12.15;6.57;;;;;;;;;;3364067;42;20088;-59
2022/08/31 11:55:46;;;;;;;12.65;6.45;;;;;;;;;;3357739;42;20559;-58
2022/08/31 11:58:46;;;;;;;13.43;6.80;;;;;;;;;;3362052;42;20104;-59
2022/08/31 12:01:17;;;;;;;14.60;6.60;;;;;;;;;;3357260;42;20091;-58
2022/08/31 12:03:45;;;;;;;12.70;6.30;;;;;;;;;;3365472;42;20119;-61
2022/08/31 12:06:32;;;;;;;16.92;6.55;;;;;;;;;;3364426;42;20084;-58
2022/08/31 12:09:19;;;;;;;17.23;6.22;;;;;;;;;;3366173;42;20102;-60
2022/08/31 12:11:51;;;;;;;15.35;6.93;;;;;;;;;;3365659;42;20196;-57
2022/08/31 12:14:32;;;;;;;12.73;6.67;;;;;;;;;;3366434;42;20138;-57
2022/08/31 12:17:08;;;;;;;13.13;5.80;;;;;;;;;;3365504;42;20366;-57
2022/08/31 12:19:59;;;;;;;17.58;6.43;;;;;;;;;;3364480;42;20096;-58
2022/08/31 12:25:26;;;;;;;12.18;6.38;;;;;;;;;;3365991;42;20095;-58
2022/08/31 12:28:33;;;;;;;11.60;6.43;;;;;;;;;;3359883;42;20594;-62
2022/08/31 12:31:06;;;;;;;12.45;6.32;;;;;;;;;;3360479;42;20091;-57
2022/08/31 12:33:32;;;;;;;12.95;6.45;;;;;;;;;;3352854;42;20692;-56
2022/08/31 12:36:15;;;;;;;14.02;6.63;;;;;;;;;;3356699;42;20083;-61
2022/08/31 12:38:42;;;;;;;15.82;6.32;;;;;;;;;;3367430;42;20134;-57
2022/08/31 12:41:09;;;;;;;17.87;6.50;;;;;;;;;;3365189;42;20106;-58
2022/08/31 12:43:41;;;;;;;14.13;6.40;;;;;;;;;;3363759;42;20544;-57
2022/08/31 12:46:20;;;;;;;14.52;6.60;;;;;;;;;;3365447;42;20173;-59
2022/08/31 12:48:46;;;;;;;14.90;6.95;;;;;;;;;;3364357;42;20716;-58
2022/08/31 12:51:18;;;;;;;15.27;6.20;;;;;;;;;;3365247;42;20087;-59
2022/08/31 12:54:08;;;;;;;15.23;6.47;;;;;;;;;;3365303;42;20643;-57
2022/08/31 12:56:52;;;;;;;13.80;6.25;;;;;;;;;;3361488;42;20159;-57
2022/08/31 12:59:24;;;;;;;13.48;5.97;;;;;;;;;;3365217;42;20203;-57
2022/08/31 13:01:50;;;;;;;12.07;5.93;;;;;;;;;;3361219;42;20096;-59
2022/08/31 13:04:17;;;;;;;14.68;6.40;;;;;;;;;;3365288;42;20084;-57
2022/08/31 13:06:46;;;;;;;15.57;6.67;;;;;;;;;;3363808;42;20127;-57
2022/08/31 13:09:27;;;;;;;14.23;6.28;;;;;;;;;;3365231;42;20094;-59
2022/08/31 13:11:57;;;;;;;11.27;6.13;;;;;;;;;;3365062;42;20087;-59
2022/08/31 13:14:28;;;;;;;13.75;6.40;;;;;;;;;;3356627;42;20135;-59
2022/08/31 13:17:11;;;;;;;14.57;6.97;;;;;;;;;;3364934;42;20683;-58
2022/08/31 13:19:38;;;;;;;14.73;6.47;;;;;;;;;;3363511;42;20158;-56
2022/08/31 13:22:08;;;;;;;13.57;6.45;;;;;;;;;;3365163;42;20087;-55
2022/08/31 13:24:40;;;;;;;19.10;6.50;;;;;;;;;;3365269;42;20135;-60
2022/08/31 13:27:42;;;;;;;14.32;6.15;;;;;;;;;;3362435;42;20330;-57
2022/08/31 13:30:17;;;;;;;14.00;6.00;;;;;;;;;;3360035;42;20442;-56
2022/08/31 13:32:45;;;;;;;12.27;6.17;;;;;;;;;;3365872;42;20549;-61
2022/08/31 13:35:14;;;;;;;16.02;6.28;;;;;;;;;;3367068;42;20588;-61
2022/08/31 13:37:43;;;;;;;13.15;6.60;;;;;;;;;;3365271;42;20150;-57
2022/08/31 13:40:10;;;;;;;14.75;7.22;;;;;;;;;;3365622;42;20104;-58
2022/08/31 13:42:41;;;;;;;14.18;6.55;;;;;;;;;;3365236;42;20168;-59
2022/08/31 13:45:38;;;;;;;13.40;6.23;;;;;;;;;;3366432;42;20106;-57
2022/08/31 13:48:09;;;;;;;15.40;6.30;;;;;;;;;;3356956;42;20141;-56
2022/08/31 13:50:55;;;;;;;12.82;5.82;;;;;;;;;;3364981;42;20111;-58
2022/08/31 13:53:39;;;;;;;13.48;5.90;;;;;;;;;;3365420;42;20131;-58
2022/08/31 13:59:15;;;;;;;17.67;7.10;;;;;;;;;;3363396;42;20783;-58
2022/08/31 14:02:05;;;;;;;16.70;6.45;;;;;;;;;;3366136;42;20122;-58
2022/08/31 14:04:48;;;;;;;14.05;6.20;;;;;;;;;;3352853;42;20558;-58
2022/08/31 14:07:20;;;;;;;14.68;6.10;;;;;;;;;;3360441;42;20143;-57
2022/08/31 14:10:03;;;;;;;16.27;5.93;;;;;;;;;;3367242;42;20130;-59
2022/08/31 14:13:12;;;;;;;15.67;5.83;;;;;;;;;;3366217;42;20526;-59
2022/08/31 14:15:51;;;;;;;14.52;5.75;;;;;;;;;;3365029;42;20092;-59
2022/08/31 14:18:30;;;;;;;15.38;6.10;;;;;;;;;;3361142;42;20640;-61
2022/08/31 14:21:05;;;;;;;16.88;5.88;;;;;;;;;;3365654;42;20087;-58
2022/08/31 14:23:38;;;;;;;16.73;6.22;;;;;;;;;;3360781;42;20634;-57
2022/08/31 14:26:06;;;;;;;15.37;5.77;;;;;;;;;;3365271;42;20099;-59
2022/08/31 14:28:40;;;;;;;16.98;5.38;;;;;;;;;;3366378;42;20096;-57
2022/08/31 14:31:26;;;;;;;13.98;5.70;;;;;;;;;;3366260;42;20092;-58
2022/08/31 14:34:33;;;;;;;17.17;5.70;;;;;;;;;;3365886;42;20637;-59
2022/08/31 14:37:18;;;;;;;13.93;5.97;;;;;;;;;;3362865;42;20114;-58
2022/08/31 14:39:46;;;;;;;14.13;6.30;;;;;;;;;;3366561;42;20971;-61
2022/08/31 14:42:17;;;;;;;12.55;5.97;;;;;;;;;;3365006;42;20571;-58
2022/08/31 14:44:55;;;;;;;13.18;5.85;;;;;;;;;;3365379;42;20088;-60
2022/08/31 14:47:28;;;;;;;14.00;5.90;;;;;;;;;;3361224;42;20593;-57
2022/08/31 14:50:04;;;;;;;17.00;5.95;;;;;;;;;;3366606;42;20546;-57
2022/08/31 14:52:48;;;;;;;15.90;6.03;;;;;;;;;;3365980;42;20092;-58
2022/08/31 14:55:14;;;;;;;15.48;6.90;;;;;;;;;;3365735;42;20975;-60
2022/08/31 14:57:43;;;;;;;16.05;6.20;;;;;;;;;;3365802;42;20143;-58
2022/08/31 15:00:10;;;;;;;13.35;6.03;;;;;;;;;;3358523;42;20107;-58
2022/08/31 15:02:36;;;;;;;15.33;6.00;;;;;;;;;;3365743;42;20551;-60
2022/08/31 15:05:06;;;;;;;15.20;5.80;;;;;;;;;;3365801;42;20143;-58
2022/08/31 15:07:34;;;;;;;15.02;5.72;;;;;;;;;;3365742;42;20106;-59
2022/08/31 15:10:00;;;;;;;17.05;6.05;;;;;;;;;;3366525;42;20087;-58
2022/08/31 15:12:26;;;;;;;19.67;6.38;;;;;;;;;;3364850;42;20083;-55
2022/08/31 15:14:58;;;;;;;15.00;5.67;;;;;;;;;;3366202;42;20107;-58